createdAt,value
2018-05-07T00:01:00.930Z,20.20
2018-05-07T00:03:28.742Z,20.30
2018-05-07T00:05:56.752Z,20.30
2018-05-07T00:08:24.724Z,20.40
2018-05-07T00:10:52.622Z,20.30
2018-05-07T00:13:20.620Z,20.10
2018-05-07T00:15:48.558Z,20.00
2018-05-07T00:18:16.550Z,19.70
2018-05-07T00:20:44.544Z,19.50
2018-05-07T00:23:12.630Z,19.50
2018-05-07T00:25:41.392Z,19.80
2018-05-07T00:28:09.419Z,19.80
2018-05-07T00:30:37.558Z,19.90
2018-05-07T00:33:06.265Z,20.10
2018-05-07T00:35:34.183Z,20.10
2018-05-07T00:38:02.079Z,20.20
2018-05-07T00:40:30.814Z,20.10
2018-05-07T00:42:58.720Z,20.10
2018-05-07T00:45:26.654Z,20.20
2018-05-07T00:47:54.570Z,20.10
2018-05-07T00:50:23.268Z,20.20
2018-05-07T00:52:52.044Z,20.20
2018-05-07T00:55:22.716Z,20.20
2018-05-07T00:57:50.644Z,20.10
2018-05-07T01:00:19.345Z,20.20
2018-05-07T01:02:48.035Z,20.20
2018-05-07T01:05:16.072Z,20.20
2018-05-07T01:07:44.028Z,20.20
2018-05-07T01:10:11.974Z,20.20
2018-05-07T01:12:40.011Z,20.10
2018-05-07T01:15:07.949Z,20.10
2018-05-07T01:17:35.921Z,19.90
2018-05-07T01:20:03.903Z,19.80
2018-05-07T01:22:31.849Z,19.80
2018-05-07T01:24:59.853Z,19.80
2018-05-07T01:27:28.531Z,19.60
2018-05-07T01:29:56.527Z,19.60
2018-05-07T01:32:24.493Z,19.70
2018-05-07T01:34:53.197Z,19.70
2018-05-07T01:37:21.197Z,19.70
2018-05-07T01:39:49.170Z,19.60
2018-05-07T01:42:17.099Z,19.80
2018-05-07T01:44:45.051Z,19.70
2018-05-07T01:47:13.804Z,19.70
2018-05-07T01:49:41.802Z,19.70
2018-05-07T01:52:10.558Z,19.90
2018-05-07T01:54:39.289Z,19.80
2018-05-07T01:57:08.015Z,20.00
2018-05-07T01:59:36.078Z,19.90
2018-05-07T02:02:04.048Z,19.90
2018-05-07T02:04:32.056Z,20.00
2018-05-07T02:07:00.057Z,20.10
2018-05-07T02:09:28.731Z,20.20
2018-05-07T02:11:57.584Z,20.20
2018-05-07T02:14:25.542Z,20.20
2018-05-07T02:16:53.482Z,20.30
2018-05-07T02:19:21.482Z,20.20
2018-05-07T02:21:49.400Z,20.20
2018-05-07T02:24:18.146Z,20.10
2018-05-07T02:26:46.962Z,20.10
2018-05-07T02:29:14.897Z,20.10
2018-05-07T02:31:42.797Z,20.10
2018-05-07T02:34:10.786Z,20.20
2018-05-07T02:36:39.578Z,20.30
2018-05-07T02:39:08.243Z,20.30
2018-05-07T02:41:36.153Z,20.20
2018-05-07T02:44:04.193Z,20.20
2018-05-07T02:46:32.926Z,20.00
2018-05-07T02:49:00.873Z,20.00
2018-05-07T02:51:28.872Z,20.10
2018-05-07T02:53:56.861Z,19.90
2018-05-07T02:56:24.792Z,19.90
2018-05-07T02:58:52.790Z,19.90
2018-05-07T03:01:20.775Z,19.80
2018-05-07T03:03:48.755Z,19.80
2018-05-07T03:06:16.690Z,19.70
2018-05-07T03:08:44.615Z,19.70
2018-05-07T03:11:13.302Z,19.80
2018-05-07T03:13:42.019Z,19.80
2018-05-07T03:16:10.028Z,19.80
2018-05-07T03:18:37.970Z,19.90
2018-05-07T03:21:05.959Z,19.80
2018-05-07T03:23:34.640Z,19.80
2018-05-07T03:26:02.561Z,19.80
2018-05-07T03:28:31.268Z,19.70
2018-05-07T03:30:59.202Z,19.60
2018-05-07T03:33:27.970Z,19.70
2018-05-07T03:35:55.940Z,19.70
2018-05-07T03:38:23.920Z,19.70
2018-05-07T03:40:51.941Z,19.70
2018-05-07T03:43:19.933Z,19.70
2018-05-07T03:45:47.887Z,19.70
2018-05-07T03:48:15.938Z,19.60
2018-05-07T03:50:43.891Z,19.60
2018-05-07T03:53:12.656Z,19.60
2018-05-07T03:55:40.555Z,19.60
2018-05-07T03:58:09.247Z,19.60
2018-05-07T04:00:37.274Z,19.60
2018-05-07T04:03:05.213Z,19.60
2018-05-07T04:05:34.179Z,19.70
2018-05-07T04:08:02.103Z,19.70
2018-05-07T04:10:30.016Z,19.70
2018-05-07T04:12:58.069Z,19.60
2018-05-07T04:15:26.723Z,19.50
2018-05-07T04:18:15.530Z,19.60
2018-05-07T04:20:55.196Z,19.80
2018-05-07T04:23:35.092Z,19.90
2018-05-07T04:26:03.780Z,19.90
2018-05-07T04:28:31.766Z,19.90
2018-05-07T04:31:00.561Z,19.60
2018-05-07T04:33:29.250Z,19.50
2018-05-07T04:35:57.906Z,19.60
2018-05-07T04:38:25.914Z,19.60
2018-05-07T04:40:53.898Z,19.50
2018-05-07T04:43:21.816Z,18.70
2018-05-07T04:45:49.727Z,18.50
2018-05-07T04:48:17.688Z,18.70
2018-05-07T04:50:45.643Z,18.90
2018-05-07T04:53:14.358Z,19.00
2018-05-07T04:55:42.327Z,18.90
2018-05-07T04:58:10.414Z,18.90
2018-05-07T05:00:38.624Z,18.90
2018-05-07T05:03:06.649Z,18.80
2018-05-07T05:05:34.575Z,18.80
2018-05-07T05:08:03.348Z,18.90
2018-05-07T05:10:31.286Z,18.90
2018-05-07T05:12:59.386Z,18.90
2018-05-07T05:15:27.303Z,18.80
2018-05-07T05:17:55.286Z,18.80
2018-05-07T05:20:23.197Z,18.70
2018-05-07T05:22:51.138Z,18.60
2018-05-07T05:25:19.112Z,18.40
2018-05-07T05:27:47.028Z,18.30
2018-05-07T05:30:15.737Z,18.60
2018-05-07T05:32:43.686Z,18.60
2018-05-07T05:35:12.598Z,18.30
2018-05-07T05:37:40.581Z,18.30
2018-05-07T05:40:08.514Z,18.20
2018-05-07T05:42:37.310Z,18.30
2018-05-07T05:45:06.066Z,18.20
2018-05-07T05:47:33.959Z,18.20
2018-05-07T05:50:02.885Z,18.20
2018-05-07T05:52:30.863Z,18.20
2018-05-07T05:54:58.767Z,18.40
2018-05-07T05:57:26.686Z,18.50
2018-05-07T05:59:54.669Z,18.60
2018-05-07T06:02:22.649Z,18.90
2018-05-07T06:04:50.586Z,19.10
2018-05-07T06:07:18.589Z,19.30
2018-05-07T06:09:46.521Z,19.20
2018-05-07T06:12:14.431Z,19.30
2018-05-07T06:14:42.394Z,19.50
2018-05-07T06:17:10.394Z,19.70
2018-05-07T06:19:38.396Z,19.70
2018-05-07T06:22:06.395Z,19.80
2018-05-07T06:24:34.295Z,19.90
2018-05-07T06:27:02.220Z,19.80
2018-05-07T06:29:30.183Z,19.70
2018-05-07T06:31:58.162Z,19.90
2018-05-07T06:34:26.102Z,20.00
2018-05-07T06:36:54.820Z,20.00
2018-05-07T06:39:22.805Z,20.00
2018-05-07T06:41:50.774Z,20.20
2018-05-07T06:44:18.690Z,20.30
2018-05-07T06:46:47.368Z,20.40
2018-05-07T06:49:16.151Z,20.50
2018-05-07T06:51:44.127Z,20.50
2018-05-07T06:54:12.037Z,20.50
2018-05-07T06:56:40.027Z,20.80
2018-05-07T06:59:07.963Z,20.80
2018-05-07T07:01:35.883Z,20.90
2018-05-07T07:04:03.814Z,21.10
2018-05-07T07:06:31.795Z,21.20
2018-05-07T07:09:00.641Z,21.50
2018-05-07T07:11:29.353Z,21.80
2018-05-07T07:13:57.306Z,21.70
2018-05-07T07:16:26.028Z,21.90
2018-05-07T07:18:54.011Z,21.90
2018-05-07T07:21:21.966Z,21.80
2018-05-07T07:23:49.915Z,21.80
2018-05-07T07:26:17.845Z,21.80
2018-05-07T07:28:45.788Z,21.90
2018-05-07T07:31:13.723Z,21.90
2018-05-07T07:33:41.670Z,22.10
2018-05-07T07:36:10.408Z,22.50
2018-05-07T07:38:39.385Z,22.50
2018-05-07T07:41:07.301Z,22.20
2018-05-07T07:43:35.276Z,22.30
2018-05-07T07:46:03.183Z,22.30
2018-05-07T07:48:31.214Z,22.30
2018-05-07T07:50:59.128Z,22.30
2018-05-07T07:53:27.134Z,22.30
2018-05-07T07:55:55.062Z,22.50
2018-05-07T07:58:23.001Z,22.80
2018-05-07T08:00:51.746Z,23.00
2018-05-07T08:03:19.768Z,23.00
2018-05-07T08:05:48.523Z,23.00
2018-05-07T08:08:16.444Z,23.00
2018-05-07T08:10:44.383Z,23.10
2018-05-07T08:13:13.126Z,23.20
2018-05-07T08:15:41.102Z,23.20
2018-05-07T08:18:09.205Z,23.20
2018-05-07T08:20:37.162Z,23.30
2018-05-07T08:23:05.192Z,23.30
2018-05-07T08:25:33.185Z,23.60
2018-05-07T08:28:01.130Z,23.60
2018-05-07T08:30:29.072Z,23.60
2018-05-07T08:32:57.806Z,23.30
2018-05-07T08:35:25.767Z,23.40
2018-05-07T08:37:53.714Z,23.40
2018-05-07T08:40:21.638Z,23.40
2018-05-07T08:42:49.595Z,23.50
2018-05-07T08:45:17.531Z,23.70
2018-05-07T08:47:45.514Z,23.90
2018-05-07T08:50:13.516Z,24.00
2018-05-07T08:52:41.515Z,23.90
2018-05-07T08:55:09.532Z,24.10
2018-05-07T08:57:37.443Z,24.20
2018-05-07T09:00:05.356Z,24.30
2018-05-07T09:02:33.274Z,24.10
2018-05-07T09:05:01.285Z,24.00
2018-05-07T09:07:29.325Z,24.10
2018-05-07T09:09:58.087Z,24.40
2018-05-07T09:12:26.120Z,24.40
2018-05-07T09:14:54.098Z,24.60
2018-05-07T09:17:22.141Z,24.50
2018-05-07T09:19:50.905Z,24.70
2018-05-07T09:22:18.921Z,24.70
2018-05-07T09:24:47.005Z,24.80
2018-05-07T09:27:14.989Z,24.60
2018-05-07T09:29:42.886Z,24.70
2018-05-07T09:32:10.787Z,24.70
2018-05-07T09:34:38.894Z,24.70
2018-05-07T09:37:06.862Z,24.90
2018-05-07T09:39:34.870Z,24.70
2018-05-07T09:42:02.922Z,24.80
2018-05-07T09:44:30.910Z,24.60
2018-05-07T09:46:58.893Z,24.70
2018-05-07T09:49:27.597Z,24.80
2018-05-07T09:51:55.593Z,24.80
2018-05-07T09:54:23.591Z,24.90
2018-05-07T09:56:56.398Z,24.70
2018-05-07T09:59:24.270Z,24.60
2018-05-07T10:01:52.988Z,24.70
2018-05-07T10:04:20.924Z,24.60
2018-05-07T10:06:49.600Z,24.80
2018-05-07T10:09:17.582Z,24.80
2018-05-07T10:11:46.255Z,25.10
2018-05-07T10:14:14.203Z,25.00
2018-05-07T10:16:42.140Z,25.40
2018-05-07T10:19:10.090Z,25.70
2018-05-07T10:21:38.771Z,25.90
2018-05-07T10:24:06.737Z,25.90
2018-05-07T10:26:35.445Z,25.80
2018-05-07T10:29:03.441Z,25.80
2018-05-07T10:31:31.418Z,26.10
2018-05-07T10:33:59.509Z,25.90
2018-05-07T10:36:27.418Z,26.10
2018-05-07T10:38:55.388Z,26.00
2018-05-07T10:41:23.299Z,26.30
2018-05-07T10:43:51.201Z,26.40
2018-05-07T10:46:19.995Z,26.50
2018-05-07T10:48:48.780Z,26.50
2018-05-07T10:51:17.494Z,26.50
2018-05-07T10:53:45.434Z,26.50
2018-05-07T10:56:14.162Z,26.70
2018-05-07T10:58:42.053Z,26.70
2018-05-07T11:01:10.010Z,26.90
2018-05-07T11:03:37.936Z,26.80
2018-05-07T11:06:06.719Z,26.70
2018-05-07T11:08:35.454Z,26.80
2018-05-07T11:11:03.449Z,26.80
2018-05-07T11:13:31.385Z,27.00
2018-05-07T11:15:59.416Z,27.00
2018-05-07T11:18:28.104Z,27.10
2018-05-07T11:20:56.787Z,27.50
2018-05-07T11:23:25.502Z,27.50
2018-05-07T11:25:53.419Z,27.50
2018-05-07T11:28:21.394Z,27.50
2018-05-07T11:30:49.406Z,27.50
2018-05-07T11:33:17.396Z,27.50
2018-05-07T11:35:45.410Z,27.60
2018-05-07T11:38:13.334Z,27.50
2018-05-07T11:40:41.319Z,27.70
2018-05-07T11:43:09.262Z,27.50
2018-05-07T11:45:37.159Z,27.90
2018-05-07T11:48:05.091Z,27.80
2018-05-07T11:50:32.979Z,27.80
2018-05-07T11:53:00.903Z,27.90
2018-05-07T11:55:29.672Z,28.10
2018-05-07T11:57:57.664Z,28.10
2018-05-07T12:00:26.476Z,28.10
2018-05-07T12:02:54.485Z,28.10
2018-05-07T12:05:22.454Z,28.20
2018-05-07T12:07:50.503Z,28.40
2018-05-07T12:10:18.515Z,28.20
2018-05-07T12:12:46.439Z,28.40
2018-05-07T12:15:14.413Z,28.50
2018-05-07T12:17:42.316Z,28.70
2018-05-07T12:20:10.268Z,28.50
2018-05-07T12:22:38.249Z,28.40
2018-05-07T12:25:06.172Z,28.50
2018-05-07T12:27:34.078Z,28.90
2018-05-07T12:30:02.073Z,28.70
2018-05-07T12:32:30.029Z,28.40
2018-05-07T12:34:58.698Z,28.80
2018-05-07T12:37:26.638Z,28.80
2018-05-07T12:39:54.575Z,29.20
2018-05-07T12:42:22.557Z,29.30
2018-05-07T12:44:51.340Z,29.30
2018-05-07T12:47:20.028Z,29.30
2018-05-07T12:49:48.784Z,29.60
2018-05-07T12:52:16.680Z,29.50
2018-05-07T12:54:45.385Z,29.80
2018-05-07T12:57:14.088Z,30.00
2018-05-07T12:59:42.050Z,29.90
2018-05-07T13:02:09.991Z,30.30
2018-05-07T13:04:38.755Z,29.30
2018-05-07T13:07:06.703Z,29.30
2018-05-07T13:09:35.010Z,29.60
2018-05-07T13:12:02.972Z,29.80
2018-05-07T13:14:30.898Z,30.30
2018-05-07T13:16:58.913Z,30.50
2018-05-07T13:19:26.945Z,30.40
2018-05-07T13:21:54.865Z,30.10
2018-05-07T13:24:23.306Z,30.20
2018-05-07T13:26:51.209Z,30.60
2018-05-07T13:29:19.201Z,30.70
2018-05-07T13:31:47.935Z,30.60
2018-05-07T13:34:15.922Z,30.60
2018-05-07T13:36:43.902Z,30.60
2018-05-07T13:39:11.977Z,30.40
2018-05-07T13:41:39.939Z,30.60
2018-05-07T13:44:07.862Z,30.70
2018-05-07T13:46:35.884Z,30.40
2018-05-07T13:49:04.031Z,30.90
2018-05-07T13:51:32.020Z,30.90
2018-05-07T13:53:59.974Z,30.30
2018-05-07T13:56:27.963Z,30.60
2018-05-07T13:58:55.946Z,30.70
2018-05-07T14:01:24.730Z,30.70
2018-05-07T14:03:52.673Z,30.70
2018-05-07T14:06:20.665Z,30.70
2018-05-07T14:08:48.647Z,30.90
2018-05-07T14:11:16.627Z,31.40
2018-05-07T14:13:45.306Z,31.60
2018-05-07T14:16:14.050Z,31.30
2018-05-07T14:18:41.982Z,31.30
2018-05-07T14:21:09.962Z,30.90
2018-05-07T14:23:37.926Z,30.80
2018-05-07T14:26:05.966Z,31.30
2018-05-07T14:28:34.671Z,31.10
2018-05-07T14:31:03.430Z,30.60
2018-05-07T14:33:31.487Z,30.60
2018-05-07T14:35:59.464Z,30.90
2018-05-07T14:38:27.424Z,30.80
2018-05-07T14:40:55.428Z,30.90
2018-05-07T14:43:24.198Z,31.50
2018-05-07T14:45:52.206Z,31.60
2018-05-07T14:48:20.899Z,31.60
2018-05-07T14:50:48.830Z,31.60
2018-05-07T14:53:16.882Z,30.80
2018-05-07T14:55:44.906Z,30.90
2018-05-07T14:58:12.934Z,31.60
2018-05-07T15:00:40.886Z,32.20
2018-05-07T15:03:08.848Z,31.50
2018-05-07T15:05:36.924Z,31.80
2018-05-07T15:08:04.891Z,31.50
2018-05-07T15:10:32.899Z,31.60
2018-05-07T15:13:00.893Z,31.60
2018-05-07T15:15:29.650Z,31.90
2018-05-07T15:17:57.561Z,31.90
2018-05-07T15:20:25.483Z,31.80
2018-05-07T15:22:53.450Z,31.60
2018-05-07T15:25:21.462Z,31.70
2018-05-07T15:27:50.193Z,31.50
2018-05-07T15:30:18.205Z,31.50
2018-05-07T15:32:46.916Z,31.50
2018-05-07T15:35:14.837Z,31.40
2018-05-07T15:37:42.846Z,31.60
2018-05-07T15:40:10.753Z,31.50
2018-05-07T15:42:38.745Z,31.80
2018-05-07T15:45:06.708Z,31.00
2018-05-07T15:47:34.698Z,31.30
2018-05-07T15:50:02.701Z,31.70
2018-05-07T15:52:30.748Z,31.80
2018-05-07T15:54:59.419Z,33.00
2018-05-07T15:57:27.369Z,32.90
2018-05-07T15:59:55.418Z,33.40
2018-05-07T16:02:23.398Z,32.60
2018-05-07T16:04:51.324Z,32.10
2018-05-07T16:07:20.055Z,31.80
2018-05-07T16:09:48.060Z,31.70
2018-05-07T16:12:16.203Z,31.60
2018-05-07T16:14:44.998Z,31.20
2018-05-07T16:17:12.997Z,31.20
2018-05-07T16:19:40.935Z,31.60
2018-05-07T16:22:09.007Z,31.30
2018-05-07T16:24:37.666Z,31.00
2018-05-07T16:27:05.552Z,31.00
2018-05-07T16:29:33.571Z,30.90
2018-05-07T16:32:02.291Z,30.40
2018-05-07T16:34:30.275Z,30.40
2018-05-07T16:36:58.268Z,30.10
2018-05-07T16:39:26.220Z,29.70
2018-05-07T16:41:54.132Z,29.50
2018-05-07T16:44:22.081Z,29.40
2018-05-07T16:46:50.059Z,29.30
2018-05-07T16:49:17.975Z,29.10
2018-05-07T16:51:45.922Z,28.70
2018-05-07T16:54:14.705Z,28.20
2018-05-07T16:56:43.454Z,28.00
2018-05-07T16:59:11.465Z,28.00
2018-05-07T17:01:40.170Z,28.00
2018-05-07T17:04:08.159Z,28.00
2018-05-07T17:06:36.190Z,27.90
2018-05-07T17:09:04.998Z,27.80
2018-05-07T17:11:32.889Z,27.70
2018-05-07T17:14:01.048Z,27.90
2018-05-07T17:16:28.985Z,27.80
2018-05-07T17:18:57.706Z,27.80
2018-05-07T17:21:25.675Z,27.70
2018-05-07T17:23:53.678Z,28.00
2018-05-07T17:26:22.449Z,27.90
2018-05-07T17:28:50.455Z,27.90
2018-05-07T17:31:18.376Z,28.30
2018-05-07T17:33:46.377Z,28.70
2018-05-07T17:36:15.153Z,28.80
2018-05-07T17:38:43.085Z,28.80
2018-05-07T17:41:11.859Z,28.80
2018-05-07T17:43:40.598Z,28.60
2018-05-07T17:46:20.555Z,28.60
2018-05-07T17:49:02.201Z,28.20
2018-05-07T17:51:30.905Z,27.50
2018-05-07T17:53:58.873Z,27.50
2018-05-07T17:56:26.810Z,27.70
2018-05-07T17:58:55.507Z,27.40
2018-05-07T18:01:24.277Z,27.40
2018-05-07T18:03:52.263Z,27.30
2018-05-07T18:06:21.225Z,27.00
2018-05-07T18:08:49.825Z,27.00
2018-05-07T18:11:18.599Z,26.80
2018-05-07T18:13:46.522Z,26.80
2018-05-07T18:16:14.525Z,26.50
2018-05-07T18:18:42.576Z,26.50
2018-05-07T18:21:10.534Z,26.20
2018-05-07T18:23:38.472Z,26.10
2018-05-07T18:26:07.245Z,26.10
2018-05-07T18:28:35.194Z,26.10
2018-05-07T18:31:03.122Z,26.10
2018-05-07T18:33:31.102Z,25.80
2018-05-07T18:35:59.095Z,25.90
2018-05-07T18:38:27.097Z,25.80
2018-05-07T18:40:55.054Z,25.70
2018-05-07T18:43:23.026Z,25.60
2018-05-07T18:45:50.966Z,25.80
2018-05-07T18:48:18.911Z,25.80
2018-05-07T18:50:46.903Z,25.90
2018-05-07T18:53:14.806Z,26.00
2018-05-07T18:55:42.730Z,25.60
2018-05-07T18:58:10.793Z,25.40
2018-05-07T19:00:38.941Z,25.30
2018-05-07T19:03:07.723Z,25.40
2018-05-07T19:05:36.602Z,25.40
2018-05-07T19:08:04.672Z,25.30
2018-05-07T19:10:32.614Z,25.30
2018-05-07T19:13:01.362Z,25.00
2018-05-07T19:15:30.132Z,24.70
2018-05-07T19:17:58.837Z,24.30
2018-05-07T19:20:27.591Z,24.10
2018-05-07T19:22:55.556Z,24.10
2018-05-07T19:25:23.574Z,24.00
2018-05-07T19:27:51.485Z,23.90
2018-05-07T19:30:19.438Z,23.90
2018-05-07T19:32:47.395Z,23.60
2018-05-07T19:35:15.331Z,23.50
2018-05-07T19:37:44.081Z,23.60
2018-05-07T19:40:12.020Z,23.60
2018-05-07T19:42:39.976Z,23.70
2018-05-07T19:45:07.984Z,23.70
2018-05-07T19:47:35.929Z,23.60
2018-05-07T19:50:04.012Z,23.60
2018-05-07T19:52:31.911Z,23.50
2018-05-07T19:54:59.834Z,23.50
2018-05-07T19:57:27.759Z,23.60
2018-05-07T19:59:55.767Z,23.60
2018-05-07T20:02:23.683Z,23.60
2018-05-07T20:04:51.621Z,23.70
2018-05-07T20:07:19.555Z,23.40
2018-05-07T20:09:48.314Z,23.10
2018-05-07T20:12:16.299Z,23.10
2018-05-07T20:14:44.275Z,23.00
2018-05-07T20:17:13.228Z,22.90
2018-05-07T20:19:41.128Z,22.90
2018-05-07T20:22:09.165Z,22.90
2018-05-07T20:24:37.194Z,22.90
2018-05-07T20:27:05.928Z,22.80
2018-05-07T20:29:33.912Z,22.80
2018-05-07T20:32:01.941Z,22.90
2018-05-07T20:34:29.944Z,22.90
2018-05-07T20:36:57.851Z,22.80
2018-05-07T20:39:26.560Z,23.00
2018-05-07T20:41:54.498Z,22.90
2018-05-07T20:44:22.431Z,23.00
2018-05-07T20:46:50.451Z,23.20
2018-05-07T20:49:19.112Z,23.00
2018-05-07T20:51:47.035Z,23.00
2018-05-07T20:54:14.990Z,23.00
2018-05-07T20:56:42.930Z,22.90
2018-05-07T20:59:11.651Z,22.60
2018-05-07T21:01:39.686Z,22.60
2018-05-07T21:04:08.386Z,22.70
2018-05-07T21:06:37.228Z,22.40
2018-05-07T21:09:05.336Z,22.50
2018-05-07T21:11:33.395Z,22.40
2018-05-07T21:14:01.364Z,22.30
2018-05-07T21:16:29.378Z,22.20
2018-05-07T21:18:57.533Z,22.20
2018-05-07T21:21:26.285Z,22.50
2018-05-07T21:23:54.281Z,22.50
2018-05-07T21:26:22.996Z,22.70
2018-05-07T21:28:50.993Z,22.70
2018-05-07T21:31:18.977Z,22.70
2018-05-07T21:33:46.892Z,22.80
2018-05-07T21:36:15.551Z,22.90
2018-05-07T21:38:43.561Z,22.90
2018-05-07T21:41:11.481Z,22.70
2018-05-07T21:43:39.412Z,22.60
2018-05-07T21:46:07.419Z,22.40
2018-05-07T21:48:35.376Z,22.50
2018-05-07T21:51:03.308Z,22.40
2018-05-07T21:53:31.313Z,22.20
2018-05-07T21:55:59.258Z,22.30
2018-05-07T21:58:27.182Z,22.50
2018-05-07T22:00:55.292Z,22.30
2018-05-07T22:03:23.267Z,22.10
2018-05-07T22:05:51.175Z,21.90
2018-05-07T22:08:19.195Z,21.70
2018-05-07T22:10:47.205Z,21.60
2018-05-07T22:13:15.119Z,21.50
2018-05-07T22:15:43.909Z,21.30
2018-05-07T22:18:12.590Z,21.30
2018-05-07T22:20:41.285Z,21.20
2018-05-07T22:23:10.023Z,21.10
2018-05-07T22:25:38.041Z,21.10
2018-05-07T22:28:06.732Z,20.90
2018-05-07T22:30:35.497Z,20.80
2018-05-07T22:33:04.231Z,20.90
2018-05-07T22:35:32.246Z,20.80
2018-05-07T22:38:00.239Z,20.70
2018-05-07T22:40:28.950Z,21.20
2018-05-07T22:42:56.940Z,21.20
2018-05-07T22:45:24.879Z,21.50
2018-05-07T22:47:52.857Z,21.40
2018-05-07T22:50:20.872Z,21.40
2018-05-07T22:52:50.338Z,21.60
2018-05-07T22:55:21.375Z,21.60
2018-05-07T22:57:49.315Z,21.60
2018-05-07T23:00:18.135Z,21.40
2018-05-07T23:02:49.129Z,21.40
2018-05-07T23:05:17.105Z,21.60
2018-05-07T23:07:45.163Z,21.50
2018-05-07T23:10:13.091Z,21.50
2018-05-07T23:12:41.068Z,21.40
2018-05-07T23:15:09.050Z,21.30
2018-05-07T23:17:37.029Z,21.30
2018-05-07T23:20:04.976Z,21.20
2018-05-07T23:22:32.934Z,21.30
2018-05-07T23:25:00.859Z,21.30
2018-05-07T23:27:28.842Z,21.20
2018-05-07T23:29:57.564Z,21.30
2018-05-07T23:32:25.469Z,21.30
2018-05-07T23:34:53.380Z,21.20
2018-05-07T23:37:21.383Z,21.20
2018-05-07T23:39:49.279Z,21.20
2018-05-07T23:42:17.238Z,21.20
2018-05-07T23:44:45.243Z,21.10
2018-05-07T23:47:13.957Z,21.10
2018-05-07T23:49:41.886Z,21.10
2018-05-07T23:52:09.820Z,21.00
2018-05-07T23:54:37.849Z,20.90
2018-05-07T23:57:06.562Z,20.90
2018-05-07T23:59:34.582Z,20.90
